Time;durP1;ratioP1;P1;durP2;ratioP2;P2;SDS_P1;SDS_P2;PMS_P1;PMS_P2;Temp;Humidity;BMP_temperature;BMP_pressure;BME280_temperature;BME280_humidity;BME280_pressure;Samples;Min_cycle;Max_cycle;Signal;HPM_P1;HPM_P2
2023/04/23 00:01:18;;;;;;;0.65;0.65;;;;;;;10.46;100.00;99581.75;4971300;28;20584;-92
2023/04/23 00:03:44;;;;;;;1.30;1.20;;;;;;;10.47;100.00;99588.84;4979915;28;20025;-91
2023/04/23 00:06:10;;;;;;;0.65;0.55;;;;;;;10.39;100.00;99585.53;4971026;28;20036;-90
2023/04/23 00:08:42;;;;;;;0.43;0.43;;;;;;;10.47;100.00;99588.84;4971562;28;20034;-90
2023/04/23 00:11:08;;;;;;;1.10;0.70;;;;;;;10.44;100.00;99584.16;4963361;28;20778;-91
2023/04/23 00:13:34;;;;;;;0.65;0.63;;;;;;;10.49;100.00;99591.94;4962703;28;20030;-91
2023/04/23 00:16:00;;;;;;;3.70;2.13;;;;;;;10.51;100.00;99597.81;4951682;28;20398;-90
2023/04/23 00:18:26;;;;;;;1.45;1.35;;;;;;;10.47;100.00;99589.63;4972585;28;20030;-89
2023/04/23 00:20:51;;;;;;;1.00;0.95;;;;;;;10.46;100.00;99590.06;4968904;28;20034;-91
2023/04/23 00:23:17;;;;;;;1.17;1.08;;;;;;;10.44;100.00;99595.25;4967304;28;22552;-90
2023/04/23 00:25:43;;;;;;;1.65;0.85;;;;;;;10.44;100.00;99584.94;4952187;28;20022;-92
2023/04/23 00:28:08;;;;;;;0.63;0.63;;;;;;;10.48;100.00;99590.38;4951288;28;20037;-90
2023/04/23 00:30:34;;;;;;;0.73;0.73;;;;;;;10.44;100.00;99581.41;4972940;28;20042;-91
2023/04/23 00:32:59;;;;;;;0.77;0.47;;;;;;;10.41;100.00;99585.06;4969131;28;20054;-90
2023/04/23 00:35:25;;;;;;;0.20;0.20;;;;;;;10.37;100.00;99573.31;4982989;28;20529;-91
2023/04/23 00:37:50;;;;;;;1.83;0.63;;;;;;;10.33;100.00;99567.13;4955055;28;20093;-90
2023/04/23 00:40:16;;;;;;;0.95;0.95;;;;;;;10.28;100.00;99565.69;4951543;28;20034;-90
2023/04/23 00:42:43;;;;;;;0.68;0.68;;;;;;;10.26;100.00;99574.47;4957856;28;20133;-90
2023/04/23 00:45:09;;;;;;;0.20;0.20;;;;;;;10.21;100.00;99572.25;4969121;28;20045;-90
2023/04/23 00:47:35;;;;;;;0.20;0.20;;;;;;;10.23;100.00;99575.34;4971134;28;20026;-91
2023/04/23 00:50:01;;;;;;;0.93;0.85;;;;;;;10.26;100.00;99574.47;4972120;28;20034;-91
2023/04/23 00:52:28;;;;;;;0.73;0.63;;;;;;;10.26;100.00;99582.00;4976554;28;20049;-90
2023/04/23 00:54:54;;;;;;;0.85;0.40;;;;;;;10.22;100.00;99568.25;4953747;28;20421;-91
2023/04/23 00:57:21;;;;;;;1.45;1.35;;;;;;;10.19;100.00;99573.91;4957685;28;20022;-90
2023/04/23 00:59:46;;;;;;;1.50;0.75;;;;;;;10.17;100.00;99568.81;4972002;28;20445;-90
2023/04/23 01:10:05;;;;;;;0.75;0.73;;;;;;;10.04;100.00;99556.94;1421969;26;20051;-93
2023/04/23 01:12:32;;;;;;;1.15;1.05;;;;;;;10.06;100.00;99554.50;4904939;28;20063;-93
2023/04/23 01:14:58;;;;;;;0.90;0.88;;;;;;;9.94;100.00;99538.66;4915512;29;20614;-92
2023/04/23 01:17:23;;;;;;;0.22;0.22;;;;;;;10.05;100.00;99569.56;4937011;28;20039;-92
2023/04/23 01:19:49;;;;;;;0.80;0.45;;;;;;;9.96;100.00;99555.59;4922111;29;20023;-91
2023/04/23 01:22:15;;;;;;;0.82;0.82;;;;;;;9.92;100.00;99560.47;4904229;28;20041;-91
2023/04/23 01:24:41;;;;;;;1.45;1.35;;;;;;;9.94;100.00;99569.16;4916497;29;20091;-92
2023/04/23 01:27:08;;;;;;;1.60;1.23;;;;;;;9.79;100.00;99548.63;4913235;29;20117;-91
2023/04/23 01:29:34;;;;;;;1.60;1.38;;;;;;;9.86;100.00;99555.94;4922168;29;20344;-92
2023/04/23 01:32:00;;;;;;;1.10;1.05;;;;;;;9.91;100.00;99567.22;4905185;29;20061;-91
2023/04/23 01:34:25;;;;;;;2.85;2.55;;;;;;;9.82;100.00;99550.53;4937943;29;20062;-91
2023/04/23 01:36:51;;;;;;;11.80;2.63;;;;;;;9.76;100.00;99546.75;4937106;29;20440;-91
2023/04/23 01:39:17;;;;;;;0.45;0.45;;;;;;;9.76;100.00;99553.06;4937736;29;20031;-91
2023/04/23 01:41:43;;;;;;;2.40;1.27;;;;;;;9.78;100.00;99547.88;4920768;29;20039;-91
2023/04/23 01:44:09;;;;;;;0.40;0.40;;;;;;;9.73;100.00;99553.19;4934115;29;20441;-92
2023/04/23 01:46:35;;;;;;;2.13;0.80;;;;;;;9.66;100.00;99542.31;4930674;29;20142;-92
2023/04/23 01:49:01;;;;;;;0.77;0.77;;;;;;;9.63;100.00;99543.19;4936821;29;20114;-91
2023/04/23 01:51:27;;;;;;;0.93;0.93;;;;;;;9.55;100.00;99530.78;4937793;28;20055;-91
2023/04/23 01:53:52;;;;;;;0.70;0.70;;;;;;;9.59;100.00;99550.84;4933144;29;20039;-91
2023/04/23 01:56:20;;;;;;;0.50;0.50;;;;;;;9.45;100.00;99526.34;4905580;29;20027;-91
2023/04/23 01:58:45;;;;;;;0.30;0.30;;;;;;;9.45;100.00;99527.13;4920129;29;20118;-91
2023/04/23 02:01:11;;;;;;;2.85;1.70;;;;;;;9.39;100.00;99528.88;4927811;28;20109;-91
2023/04/23 02:03:36;;;;;;;0.47;0.25;;;;;;;9.47;100.00;99535.75;4961870;28;20031;-91
2023/04/23 02:06:03;;;;;;;1.90;1.77;;;;;;;9.54;100.00;99545.88;4921146;28;20027;-93
2023/04/23 02:08:30;;;;;;;1.00;0.40;;;;;;;9.51;100.00;99541.19;4941277;28;20386;-93
2023/04/23 02:10:56;;;;;;;0.50;0.50;;;;;;;9.50;100.00;99545.97;4937880;28;20046;-91
2023/04/23 02:13:22;;;;;;;0.40;0.38;;;;;;;9.47;100.00;99534.97;4949981;28;20045;-92
2023/04/23 02:15:47;;;;;;;0.57;0.57;;;;;;;9.41;100.00;99526.47;4959314;28;20070;-93
2023/04/23 02:18:13;;;;;;;0.05;0.05;;;;;;;9.31;100.00;99516.47;4972225;28;20034;-91
2023/04/23 02:20:40;;;;;;;0.88;0.88;;;;;;;9.22;100.00;99506.06;4959322;28;20038;-92
2023/04/23 02:23:09;;;;;;;3.00;1.33;;;;;;;9.36;100.00;99533.31;4943724;28;20639;-92
2023/04/23 02:25:37;;;;;;;1.10;0.50;;;;;;;9.37;100.00;99536.88;4975901;28;20041;-91
2023/04/23 02:28:05;;;;;;;0.52;0.52;;;;;;;9.31;100.00;99539.41;4963790;28;20023;-90
2023/04/23 02:30:32;;;;;;;0.20;0.20;;;;;;;9.26;100.00;99528.88;4959807;28;20045;-91
2023/04/23 02:32:58;;;;;;;1.17;1.15;;;;;;;9.33;100.00;99545.28;4958575;28;20070;-91
2023/04/23 02:35:23;;;;;;;0.95;0.73;;;;;;;9.31;100.00;99550.47;4953389;28;20086;-93
2023/04/23 02:37:49;;;;;;;2.60;1.55;;;;;;;9.21;100.00;99543.28;4947241;28;20070;-93
2023/04/23 02:40:15;;;;;;;0.88;0.88;;;;;;;9.18;100.00;99529.53;4970406;28;21630;-91
2023/04/23 02:42:41;;;;;;;0.80;0.75;;;;;;;9.18;100.00;99540.59;4939954;28;20039;-92
2023/04/23 02:45:07;;;;;;;1.08;0.65;;;;;;;9.15;100.00;99547.00;4961401;28;20038;-91
2023/04/23 02:47:32;;;;;;;1.27;1.17;;;;;;;9.14;100.00;99540.69;4956715;28;20041;-92
2023/04/23 02:50:01;;;;;;;0.57;0.57;;;;;;;9.07;100.00;99535.38;4955407;28;20499;-91
2023/04/23 02:52:27;;;;;;;0.82;0.82;;;;;;;9.14;100.00;99539.94;4950276;28;20395;-92
2023/04/23 02:54:52;;;;;;;1.23;1.13;;;;;;;9.09;100.00;99538.47;4944353;28;20110;-92
2023/04/23 02:57:18;;;;;;;0.57;0.43;;;;;;;9.16;100.00;99538.28;4956098;28;20056;-92
2023/04/23 02:59:44;;;;;;;0.90;0.90;;;;;;;9.15;100.00;99533.16;4961889;28;20069;-92
2023/04/23 03:02:10;;;;;;;2.38;1.40;;;;;;;9.16;100.00;99540.25;4955042;28;20026;-93
2023/04/23 03:04:36;;;;;;;0.45;0.45;;;;;;;9.04;100.00;99527.16;4937842;28;20061;-92
2023/04/23 03:07:01;;;;;;;1.05;1.02;;;;;;;9.01;100.00;99526.06;4939693;28;20034;-92
2023/04/23 03:09:27;;;;;;;0.80;0.47;;;;;;;8.93;100.00;99507.34;4946148;28;20026;-92
2023/04/23 03:11:52;;;;;;;0.20;0.17;;;;;;;9.06;100.00;99528.28;4942383;28;20089;-92
2023/04/23 03:14:18;;;;;;;2.20;0.93;;;;;;;9.04;100.00;99535.47;4935668;28;21622;-91
2023/04/23 03:16:43;;;;;;;3.55;1.13;;;;;;;9.08;100.00;99536.13;4968947;28;20030;-88
2023/04/23 03:19:09;;;;;;;0.43;0.43;;;;;;;8.90;100.00;99514.50;4938968;28;20248;-92
2023/04/23 03:21:35;;;;;;;2.08;1.90;;;;;;;8.98;100.00;99520.63;4957769;28;20027;-91
2023/04/23 03:24:00;;;;;;;0.75;0.75;;;;;;;8.92;100.00;99520.38;4970762;28;20499;-93
2023/04/23 03:26:26;;;;;;;0.00;0.00;;;;;;;8.99;100.00;99525.72;4939499;28;20548;-92
2023/04/23 03:28:51;;;;;;;0.10;0.10;;;;;;;8.87;100.00;99504.31;4958063;28;20457;-91
2023/04/23 03:31:17;;;;;;;1.10;1.08;;;;;;;8.84;100.00;99516.28;4943731;28;20092;-91
2023/04/23 03:33:43;;;;;;;1.02;1.02;;;;;;;8.89;100.00;99535.88;4938703;28;20396;-92
2023/04/23 03:36:09;;;;;;;1.17;1.08;;;;;;;8.79;100.00;99528.63;4936070;28;20499;-91
2023/04/23 03:38:34;;;;;;;1.25;0.85;;;;;;;8.79;100.00;99525.09;4939848;28;20133;-92
2023/04/23 03:41:02;;;;;;;8.27;1.55;;;;;;;8.82;100.00;99533.28;4944932;28;20084;-91
2023/04/23 03:43:28;;;;;;;0.40;0.40;;;;;;;8.78;100.00;99526.31;4938621;28;20035;-91
2023/04/23 03:46:02;;;;;;;0.52;0.52;;;;;;;8.72;100.00;99525.28;4958370;28;20033;-91
2023/04/23 03:48:31;;;;;;;0.47;0.47;;;;;;;8.69;100.00;99520.66;4954467;28;20054;-91
2023/04/23 03:50:59;;;;;;;1.75;1.15;;;;;;;8.63;100.00;99517.63;4935674;28;20420;-92
2023/04/23 03:53:36;;;;;;;1.35;1.25;;;;;;;8.62;100.00;99523.59;4937845;28;20046;-91
2023/04/23 03:56:27;;;;;;;1.60;1.17;;;;;;;8.63;100.00;99520.41;4928692;28;20468;-93
2023/04/23 03:59:19;;;;;;;2.53;1.35;;;;;;;8.59;100.00;99516.94;4959868;28;20077;-91
2023/04/23 04:01:47;;;;;;;0.85;0.85;;;;;;;8.66;100.00;99522.28;4956937;23;20054;-92
2023/04/23 04:04:13;;;;;;;1.98;1.05;;;;;;;8.70;100.00;99533.25;4957098;28;20038;-92
2023/04/23 04:06:39;;;;;;;0.30;0.30;;;;;;;8.68;100.00;99524.63;4940930;28;20041;-91
2023/04/23 04:09:07;;;;;;;1.98;1.45;;;;;;;8.54;100.00;99513.94;4957166;28;20392;-92
2023/04/23 04:11:33;;;;;;;2.08;1.60;;;;;;;8.63;100.00;99525.91;4942083;28;20072;-92
2023/04/23 04:13:59;;;;;;;2.03;1.88;;;;;;;8.71;100.00;99535.56;4941074;28;20031;-92
2023/04/23 04:16:24;;;;;;;1.98;1.80;;;;;;;8.72;100.00;99536.34;4948416;28;20488;-92
2023/04/23 04:18:50;;;;;;;1.05;1.02;;;;;;;8.65;100.00;99522.72;4953839;28;20042;-91
2023/04/23 04:21:17;;;;;;;0.60;0.60;;;;;;;8.66;100.00;99521.50;4939563;28;20034;-91
2023/04/23 04:23:47;;;;;;;0.00;0.00;;;;;;;8.66;100.00;99522.28;4941328;28;20030;-92
2023/04/23 04:26:14;;;;;;;0.50;0.45;;;;;;;8.69;100.00;99526.97;4945802;28;20034;-92
2023/04/23 04:28:40;;;;;;;0.93;0.90;;;;;;;8.70;100.00;99522.19;4938261;28;20049;-92
2023/04/23 04:31:05;;;;;;;0.47;0.47;;;;;;;8.75;100.00;99521.66;4941296;28;20022;-92
2023/04/23 04:33:33;;;;;;;0.32;0.32;;;;;;;8.88;100.00;99522.47;4937020;28;20046;-92
2023/04/23 04:35:59;;;;;;;1.33;1.23;;;;;;;9.03;100.00;99534.69;4937826;28;20483;-93
2023/04/23 04:38:25;;;;;;;1.52;1.02;;;;;;;9.18;100.00;99548.91;4935298;28;20050;-92
2023/04/23 04:40:54;;;;;;;1.67;0.98;;;;;;;9.33;100.00;99548.06;4941291;28;20030;-93
2023/04/23 04:43:19;;;;;;;1.60;1.35;;;;;;;9.23;100.00;99521.44;4935890;28;20033;-92
2023/04/23 04:45:45;;;;;;;0.63;0.50;;;;;;;9.41;100.00;99532.00;4941008;28;20042;-92
2023/04/23 04:48:11;;;;;;;0.60;0.60;;;;;;;9.55;100.00;99547.38;4938966;28;20372;-92
2023/04/23 04:50:36;;;;;;;0.77;0.77;;;;;;;9.63;100.00;99537.66;4941109;28;20496;-93
2023/04/23 04:53:02;;;;;;;0.90;0.75;;;;;;;9.74;100.00;99543.66;4940960;28;20054;-92
2023/04/23 04:55:28;;;;;;;0.98;0.93;;;;;;;9.97;100.00;99540.53;4949655;28;20030;-92
2023/04/23 04:57:53;;;;;;;1.35;1.25;;;;;;;10.05;100.00;99550.19;4956686;28;20054;-92
2023/04/23 05:00:28;;;;;;;0.30;0.30;;;;;;;10.23;100.00;99558.69;4937827;28;20045;-91
2023/04/23 05:02:55;;;;;;;1.23;0.95;;;;;;;10.31;100.00;99547.41;4966748;28;20054;-91
2023/04/23 05:05:21;;;;;;;2.25;1.63;;;;;;;10.40;100.00;99530.84;4937136;28;20035;-91
2023/04/23 05:07:47;;;;;;;1.42;1.33;;;;;;;10.79;100.00;99546.91;4952625;28;20037;-91
2023/04/23 05:10:14;;;;;;;2.33;1.63;;;;;;;10.95;100.00;99552.28;4971695;28;20034;-92
2023/04/23 05:12:40;;;;;;;1.40;0.63;;;;;;;11.19;100.00;99556.16;4969098;28;20022;-91
2023/04/23 05:15:12;;;;;;;1.05;0.52;;;;;;;11.32;100.00;99558.09;4938986;28;20543;-92
2023/04/23 05:17:38;;;;;;;1.75;0.57;;;;;;;11.44;100.00;99548.91;4953399;28;20253;-92
2023/04/23 05:20:04;;;;;;;0.90;0.85;;;;;;;11.60;100.00;99559.78;4953812;28;20085;-91
2023/04/23 05:22:37;;;;;;;0.90;0.90;;;;;;;11.63;100.00;99533.88;4971004;28;20443;-93
2023/04/23 05:25:04;;;;;;;1.67;0.75;;;;;;;11.89;100.00;99554.66;4953558;28;20117;-92
2023/04/23 05:27:30;;;;;;;1.50;1.25;;;;;;;11.95;100.00;99549.31;4954408;28;20564;-91
2023/04/23 05:29:58;;;;;;;0.70;0.50;;;;;;;12.09;100.00;99554.31;4952019;28;20118;-92
2023/04/23 05:32:24;;;;;;;1.50;1.40;;;;;;;12.19;100.00;99543.97;4972036;28;20033;-91
2023/04/23 05:34:49;;;;;;;1.30;1.10;;;;;;;12.27;100.00;99548.00;4957231;28;20038;-92
2023/04/23 05:37:15;;;;;;;1.02;0.82;;;;;;;12.42;100.00;99554.50;4937182;28;20455;-92
2023/04/23 05:39:40;;;;;;;1.15;1.08;;;;;;;12.62;99.99;99555.63;4956191;28;20042;-92
2023/04/23 05:42:06;;;;;;;2.08;1.75;;;;;;;12.68;98.90;99547.44;4952523;28;20030;-92
2023/04/23 05:44:31;;;;;;;1.55;1.45;;;;;;;12.81;98.43;99536.94;4968763;28;20484;-92
2023/04/23 05:46:57;;;;;;;1.02;0.98;;;;;;;12.87;96.90;99526.72;4936520;28;20502;-92
2023/04/23 05:49:22;;;;;;;0.95;0.85;;;;;;;13.15;95.88;99554.56;4953230;28;20085;-92
2023/04/23 05:51:48;;;;;;;1.98;1.27;;;;;;;13.19;95.22;99532.88;4971382;28;20071;-91
2023/04/23 05:54:14;;;;;;;1.38;1.27;;;;;;;13.33;93.32;99560.88;4968319;28;20030;-92
2023/04/23 05:56:39;;;;;;;0.60;0.60;;;;;;;13.44;94.21;99552.81;4951124;28;20045;-91
2023/04/23 05:59:05;;;;;;;1.60;1.23;;;;;;;13.71;89.75;99563.09;4944053;28;20757;-91
2023/04/23 06:01:31;;;;;;;1.92;1.83;;;;;;;13.64;79.90;99535.56;4950881;28;20038;-92
2023/04/23 06:03:56;;;;;;;1.20;1.10;;;;;;;13.76;78.23;99548.53;4970960;28;20046;-91
2023/04/23 06:06:22;;;;;;;0.95;0.95;;;;;;;13.87;76.91;99553.63;4954801;28;20035;-91
2023/04/23 06:08:49;;;;;;;0.40;0.40;;;;;;;14.02;77.41;99546.09;4951423;28;20054;-91
2023/04/23 06:11:15;;;;;;;0.63;0.63;;;;;;;14.19;70.64;99555.63;4953606;28;20062;-92
2023/04/23 06:13:41;;;;;;;0.38;0.38;;;;;;;14.29;67.87;99547.97;4947902;28;20116;-92
2023/04/23 06:16:07;;;;;;;0.73;0.73;;;;;;;14.59;66.01;99574.78;4949746;28;20496;-92
2023/04/23 06:18:34;;;;;;;0.50;0.50;;;;;;;14.48;66.71;99568.19;4938970;28;20129;-90
2023/04/23 06:21:03;;;;;;;2.17;1.75;;;;;;;14.72;67.69;99586.47;4938652;28;20101;-91
2023/04/23 06:23:34;;;;;;;1.95;1.23;;;;;;;14.95;65.79;99573.75;4954557;28;20018;-91
2023/04/23 06:25:59;;;;;;;1.40;0.93;;;;;;;15.10;65.13;99552.19;4933816;28;20058;-91
2023/04/23 06:28:25;;;;;;;1.15;1.02;;;;;;;15.45;62.19;99577.44;4940055;28;20484;-90
2023/04/23 06:31:14;;;;;;;0.88;0.80;;;;;;;15.67;62.88;99577.09;4948858;28;20580;-91
2023/04/23 06:33:40;;;;;;;1.40;1.05;;;;;;;15.82;61.96;99567.44;4955895;28;20113;-91
2023/04/23 06:36:09;;;;;;;1.45;0.82;;;;;;;16.07;59.96;99579.28;4938022;28;20633;-91
2023/04/23 06:38:35;;;;;;;1.85;1.02;;;;;;;15.97;57.94;99572.25;4936911;28;20059;-91
2023/04/23 06:41:03;;;;;;;0.93;0.82;;;;;;;16.20;58.50;99579.72;4968670;28;20050;-90
2023/04/23 06:43:28;;;;;;;1.35;1.10;;;;;;;16.42;58.01;99574.44;4969440;28;20031;-93
2023/04/23 06:46:18;;;;;;;0.73;0.73;;;;;;;16.41;55.27;99578.50;4942057;28;20049;-92
2023/04/23 06:48:43;;;;;;;1.10;1.00;;;;;;;16.49;55.30;99562.06;4939903;28;20468;-93
2023/04/23 06:51:09;;;;;;;2.30;1.52;;;;;;;16.77;55.12;99580.81;4971663;28;20139;-92
2023/04/23 06:53:36;;;;;;;0.63;0.63;;;;;;;16.99;55.40;99585.13;4971238;28;20089;-93
2023/04/23 06:56:01;;;;;;;1.55;0.88;;;;;;;16.74;53.93;99561.41;4967766;28;20042;-93
2023/04/23 06:58:30;;;;;;;1.85;1.75;;;;;;;16.78;56.12;99585.13;4964059;28;20456;-91
2023/04/23 07:01:00;;;;;;;0.82;0.82;;;;;;;17.09;54.40;99575.31;4967563;28;20042;-92
2023/04/23 07:03:28;;;;;;;3.30;2.03;;;;;;;16.86;53.96;99559.50;4960458;28;20066;-91
2023/04/23 07:05:53;;;;;;;1.13;1.05;;;;;;;16.66;56.48;99569.44;4969119;28;20089;-91
2023/04/23 07:08:22;;;;;;;1.25;1.15;;;;;;;16.76;55.84;99559.66;4950025;28;20464;-91
2023/04/23 07:10:48;;;;;;;1.70;1.35;;;;;;;17.06;56.91;99573.50;4966337;28;21271;-91
2023/04/23 07:13:14;;;;;;;3.25;1.60;;;;;;;17.37;56.28;99564.38;4947585;28;20133;-91
2023/04/23 07:15:40;;;;;;;0.98;0.93;;;;;;;17.61;53.30;99576.88;4950139;28;20046;-90
2023/04/23 07:18:06;;;;;;;1.92;1.27;;;;;;;17.79;53.36;99558.94;4944985;28;20046;-91
2023/04/23 07:20:31;;;;;;;0.75;0.73;;;;;;;18.03;53.89;99555.81;4958661;28;20621;-91
2023/04/23 07:22:58;;;;;;;1.42;1.05;;;;;;;18.31;51.39;99548.31;4947075;28;20034;-92
2023/04/23 07:25:25;;;;;;;0.85;0.70;;;;;;;18.22;49.16;99556.94;4941175;28;20049;-93
2023/04/23 07:27:50;;;;;;;3.92;1.48;;;;;;;18.02;49.90;99559.88;4933934;28;20093;-93
2023/04/23 07:30:16;;;;;;;0.60;0.60;;;;;;;18.14;50.25;99550.25;4964015;28;20460;-93
2023/04/23 07:32:42;;;;;;;0.40;0.40;;;;;;;18.52;49.83;99558.16;4951845;28;20062;-91
2023/04/23 07:35:09;;;;;;;1.33;1.23;;;;;;;18.43;49.49;99554.78;4964579;28;20038;-92
2023/04/23 07:37:44;;;;;;;1.08;0.68;;;;;;;18.67;48.60;99545.97;4967231;28;20038;-91
2023/04/23 07:40:10;;;;;;;2.17;1.23;;;;;;;18.81;48.40;99559.03;4941486;28;20186;-93
2023/04/23 07:42:36;;;;;;;1.45;1.35;;;;;;;19.07;48.63;99546.38;4935227;28;20556;-91
2023/04/23 07:45:01;;;;;;;0.52;0.52;;;;;;;19.38;47.74;99548.22;4934879;28;20516;-92
2023/04/23 07:47:27;;;;;;;3.50;0.82;;;;;;;19.57;47.52;99542.13;4950420;28;20088;-91
2023/04/23 07:49:52;;;;;;;1.98;1.50;;;;;;;19.91;47.35;99538.78;4977550;28;20048;-89
2023/04/23 07:52:18;;;;;;;0.82;0.82;;;;;;;19.78;46.00;99546.22;4945001;28;20054;-91
2023/04/23 07:54:45;;;;;;;1.45;0.82;;;;;;;19.98;48.18;99543.13;4950936;28;20042;-91
2023/04/23 07:57:11;;;;;;;1.40;0.88;;;;;;;19.81;47.96;99522.69;4962163;28;20038;-90
2023/04/23 07:59:38;;;;;;;1.33;0.85;;;;;;;19.99;46.48;99527.78;4945842;28;20113;-90
2023/04/23 08:02:04;;;;;;;1.60;1.27;;;;;;;19.66;46.55;99539.03;4950874;28;20043;-91
2023/04/23 08:04:29;;;;;;;2.47;0.70;;;;;;;19.35;42.82;99540.81;4966955;28;20121;-92
2023/04/23 08:06:55;;;;;;;1.40;1.30;;;;;;;19.46;46.20;99537.25;4961857;28;20485;-91
2023/04/23 08:09:20;;;;;;;1.25;1.05;;;;;;;19.62;46.36;99510.41;4945133;28;20484;-91
2023/04/23 08:11:47;;;;;;;1.65;1.55;;;;;;;19.93;44.92;99529.84;4967378;28;20038;-91
2023/04/23 08:14:12;;;;;;;1.13;0.82;;;;;;;19.72;45.56;99540.59;4945021;28;20129;-91
2023/04/23 08:16:38;;;;;;;1.75;1.50;;;;;;;19.45;45.03;99536.47;4949594;28;20145;-91
2023/04/23 08:19:04;;;;;;;3.47;2.15;;;;;;;19.32;45.52;99527.75;4938521;28;20089;-92
2023/04/23 08:21:31;;;;;;;2.92;2.15;;;;;;;19.65;44.26;99537.53;4962149;28;20074;-92
2023/04/23 08:23:57;;;;;;;2.22;2.03;;;;;;;19.86;45.44;99531.13;4966819;28;20069;-92
2023/04/23 08:26:22;;;;;;;3.00;1.65;;;;;;;19.77;44.72;99510.94;4934390;28;20120;-93
2023/04/23 08:28:48;;;;;;;1.33;1.23;;;;;;;20.23;43.86;99536.44;4950735;28;20897;-91
2023/04/23 08:31:14;;;;;;;1.67;1.55;;;;;;;20.20;42.82;99526.22;4962025;28;20438;-91
2023/04/23 08:33:39;;;;;;;0.85;0.85;;;;;;;20.20;42.39;99526.22;4961822;28;20031;-91
2023/04/23 08:36:05;;;;;;;4.68;1.13;;;;;;;20.34;43.32;99524.41;4950477;28;20585;-92
2023/04/23 08:38:31;;;;;;;1.75;1.48;;;;;;;20.31;43.05;99526.19;4966239;28;20050;-92
2023/04/23 08:40:57;;;;;;;1.48;0.77;;;;;;;20.41;41.11;99524.66;4945869;28;20043;-93
2023/04/23 08:43:33;;;;;;;3.13;1.63;;;;;;;20.75;40.85;99525.28;4950030;28;20048;-92
2023/04/23 08:46:05;;;;;;;1.17;0.98;;;;;;;20.60;39.33;99507.16;4960505;28;20509;-92
2023/04/23 08:48:33;;;;;;;1.02;0.90;;;;;;;20.67;40.21;99506.59;4960609;28;20061;-91
2023/04/23 08:51:01;;;;;;;1.50;1.40;;;;;;;20.54;39.72;99487.47;4962814;28;20056;-89
2023/04/23 08:53:27;;;;;;;3.08;1.65;;;;;;;21.08;39.16;99512.28;4928019;28;20062;-90
2023/04/23 08:55:53;;;;;;;2.22;1.42;;;;;;;21.32;38.73;99512.41;4964326;28;20042;-91
2023/04/23 08:58:19;;;;;;;0.82;0.82;;;;;;;21.64;38.41;99510.63;4951460;28;20093;-89
2023/04/23 09:00:44;;;;;;;3.53;1.23;;;;;;;21.62;37.87;99516.03;4949762;28;20062;-90
2023/04/23 09:03:10;;;;;;;1.42;1.33;;;;;;;21.82;37.84;99501.50;4942327;28;20042;-90
2023/04/23 09:05:36;;;;;;;3.20;2.80;;;;;;;22.05;37.64;99510.53;4924484;28;20043;-89
2023/04/23 09:08:01;;;;;;;6.30;2.63;;;;;;;22.35;36.88;99501.22;4915294;28;20086;-90
2023/04/23 09:10:27;;;;;;;3.05;1.80;;;;;;;22.44;37.40;99492.41;4937819;28;20677;-90
2023/04/23 09:12:53;;;;;;;9.68;3.13;;;;;;;22.37;35.96;99504.28;4927850;28;20033;-90
2023/04/23 09:15:19;;;;;;;4.45;3.70;;;;;;;22.63;35.97;99488.28;4930997;28;20077;-94
2023/04/23 09:17:46;;;;;;;3.05;2.08;;;;;;;22.77;36.05;99492.00;4936051;28;20538;-96
2023/04/23 09:20:12;;;;;;;8.35;4.00;;;;;;;22.92;35.61;99492.31;4928921;28;20043;-92
2023/04/23 09:22:42;;;;;;;4.10;3.53;;;;;;;22.63;35.36;99487.53;4928083;28;20035;-91
2023/04/23 09:25:09;;;;;;;2.30;2.10;;;;;;;22.49;35.62;99485.91;4934888;28;20051;-92
2023/04/23 09:27:37;;;;;;;5.75;2.67;;;;;;;22.54;35.88;99490.72;4919745;28;20126;-93
2023/04/23 09:30:07;;;;;;;2.22;2.03;;;;;;;22.67;35.89;99480.28;4914655;28;20066;-93
2023/04/23 09:32:33;;;;;;;2.88;2.45;;;;;;;22.84;34.20;99485.75;4925292;28;20475;-95
2023/04/23 09:35:04;;;;;;;5.15;2.55;;;;;;;22.91;34.68;99484.34;4944526;28;20036;-93
2023/04/23 09:37:31;;;;;;;1.60;1.45;;;;;;;22.59;33.46;99475.75;4922085;28;20527;-93
2023/04/23 09:40:00;;;;;;;2.83;2.42;;;;;;;22.49;34.18;99480.25;4939131;28;20038;-93
2023/04/23 09:42:27;;;;;;;1.48;1.20;;;;;;;22.88;34.80;99469.22;4932236;28;20053;-91
2023/04/23 09:45:11;;;;;;;0.55;0.55;;;;;;;23.29;34.14;99457.56;4922298;28;20093;-91
2023/04/23 09:47:38;;;;;;;2.88;1.77;;;;;;;23.60;33.43;99468.13;4932910;28;20109;-92
2023/04/23 09:50:04;;;;;;;1.75;1.20;;;;;;;23.67;31.60;99473.16;4918736;28;20469;-91
2023/04/23 09:52:31;;;;;;;0.98;0.98;;;;;;;23.72;30.22;99465.88;4935577;28;20043;-91
2023/04/23 09:55:00;;;;;;;4.25;2.42;;;;;;;23.95;31.76;99472.66;4954190;28;20087;-91
2023/04/23 09:57:25;;;;;;;3.15;2.00;;;;;;;23.52;30.98;99469.31;4937415;28;20125;-90
2023/04/23 09:59:51;;;;;;;2.50;1.52;;;;;;;23.04;31.57;99437.13;4967130;28;20122;-92
2023/04/23 10:02:17;;;;;;;0.45;0.45;;;;;;;23.06;31.65;99454.28;4933072;28;20497;-91
2023/04/23 10:04:43;;;;;;;1.55;1.02;;;;;;;22.67;32.23;99449.19;4952517;28;20456;-92
2023/04/23 10:07:12;;;;;;;0.80;0.57;;;;;;;22.45;32.88;99448.69;4954441;28;20105;-91
2023/04/23 10:09:40;;;;;;;2.60;1.13;;;;;;;22.73;32.87;99455.53;4929079;28;20031;-92
2023/04/23 10:12:06;;;;;;;1.58;1.38;;;;;;;23.20;32.04;99450.22;4939668;28;20624;-92
2023/04/23 10:14:31;;;;;;;1.50;0.88;;;;;;;23.48;31.03;99446.22;4932477;28;20094;-91
2023/04/23 10:17:02;;;;;;;3.53;0.95;;;;;;;23.24;30.47;99455.56;4942581;28;20035;-94
2023/04/23 10:19:28;;;;;;;0.57;0.57;;;;;;;22.92;31.34;99429.31;4965671;28;20050;-92
2023/04/23 10:21:56;;;;;;;1.52;1.42;;;;;;;23.05;32.93;99441.44;4922585;28;20042;-94
2023/04/23 10:24:29;;;;;;;1.05;0.88;;;;;;;23.60;31.10;99436.22;4938961;28;20043;-92
2023/04/23 10:26:56;;;;;;;0.60;0.50;;;;;;;24.22;29.80;99438.69;4942695;28;20050;-92
2023/04/23 10:29:27;;;;;;;3.67;1.45;;;;;;;24.32;29.06;99425.59;4937612;28;20545;-93
2023/04/23 10:31:54;;;;;;;0.73;0.43;;;;;;;24.52;29.18;99433.41;4939316;28;20452;-92
2023/04/23 10:34:20;;;;;;;1.05;1.02;;;;;;;24.35;27.60;99430.16;4922023;28;20496;-92
2023/04/23 10:36:46;;;;;;;0.95;0.73;;;;;;;24.10;28.63;99410.53;4951305;28;20515;-92
2023/04/23 10:39:13;;;;;;;1.63;1.52;;;;;;;23.84;28.55;99404.13;4951486;28;20027;-91
2023/04/23 10:41:40;;;;;;;1.38;0.85;;;;;;;24.11;28.57;99420.56;4952140;28;20031;-91
2023/04/23 10:44:10;;;;;;;1.27;1.13;;;;;;;23.61;29.16;99387.56;4944421;28;20121;-91
2023/04/23 10:46:36;;;;;;;0.98;0.65;;;;;;;23.34;29.44;99407.81;4948644;28;20051;-91
2023/04/23 10:49:15;;;;;;;0.63;0.63;;;;;;;23.72;29.24;99419.78;4946370;28;20027;-89
2023/04/23 10:51:42;;;;;;;0.38;0.38;;;;;;;23.77;30.02;99405.53;4918880;28;20022;-90
2023/04/23 10:54:11;;;;;;;0.40;0.40;;;;;;;24.11;30.24;99414.13;4915138;28;20053;-91
2023/04/23 10:56:38;;;;;;;1.15;1.05;;;;;;;24.47;29.54;99411.59;4930231;28;20042;-91
2023/04/23 10:59:07;;;;;;;1.40;1.27;;;;;;;24.54;29.33;99402.44;4914687;28;20035;-91
2023/04/23 11:01:32;;;;;;;1.90;1.00;;;;;;;24.79;28.92;99405.75;4914393;28;20038;-91
2023/04/23 11:03:59;;;;;;;0.65;0.65;;;;;;;24.66;29.09;99419.97;4930175;28;20039;-92
2023/04/23 11:06:46;;;;;;;1.25;1.00;;;;;;;24.50;29.88;99416.19;4930864;28;20094;-91
2023/04/23 11:09:28;;;;;;;1.67;0.68;;;;;;;24.52;29.73;99405.06;4951015;28;20118;-92
2023/04/23 11:11:54;;;;;;;0.57;0.45;;;;;;;24.55;29.52;99406.78;4933482;28;20043;-94
2023/04/23 11:14:19;;;;;;;0.77;0.63;;;;;;;24.37;28.98;99399.97;4936764;28;20027;-92
2023/04/23 11:16:47;;;;;;;2.72;1.60;;;;;;;24.66;29.72;99403.72;4947816;28;20042;-94
2023/04/23 11:19:14;;;;;;;4.82;1.58;;;;;;;24.57;29.81;99395.69;4933216;28;20393;-91
2023/04/23 11:22:01;;;;;;;;;;;;;;;24.75;29.40;99406.06;4924874;28;20050;-95
2023/04/23 11:24:31;;;;;;;2.30;0.88;;;;;;;24.69;29.20;99396.94;4928515;28;19928;-95
2023/04/23 11:27:23;;;;;;;1.00;0.90;;;;;;;24.66;28.80;99388.78;4935255;29;20031;-96
2023/04/23 11:29:49;;;;;;;1.10;0.82;;;;;;;24.44;29.61;99381.53;4913398;28;20079;-94
2023/04/23 11:32:18;;;;;;;0.70;0.50;;;;;;;24.49;30.12;99380.66;4955565;28;20074;-94
2023/04/23 11:34:45;;;;;;;1.65;1.20;;;;;;;24.74;29.38;99384.72;4937975;28;20035;-95
2023/04/23 11:37:13;;;;;;;1.85;0.98;;;;;;;24.78;29.12;99381.53;4936134;29;20066;-96
2023/04/23 11:39:40;;;;;;;4.38;1.58;;;;;;;24.78;29.17;99375.88;4903761;28;20183;-94